sensor_id;sensor_type;location;lat;lon;timestamp;temperature;humidity
12053;DHT22;6087;48.982;12.064;2022-07-01T00:00:53;22.00;99.90
12053;DHT22;6087;48.982;12.064;2022-07-01T00:03:20;22.10;99.90
12053;DHT22;6087;48.982;12.064;2022-07-01T00:05:47;22.20;99.90
12053;DHT22;6087;48.982;12.064;2022-07-01T00:08:14;22.20;99.90
12053;DHT22;6087;48.982;12.064;2022-07-01T00:10:41;22.20;99.90
12053;DHT22;6087;48.982;12.064;2022-07-01T00:13:08;22.20;99.90
12053;DHT22;6087;48.982;12.064;2022-07-01T00:15:35;22.10;99.90
12053;DHT22;6087;48.982;12.064;2022-07-01T00:18:04;22.00;99.90
12053;DHT22;6087;48.982;12.064;2022-07-01T00:20:31;21.80;99.90
12053;DHT22;6087;48.982;12.064;2022-07-01T00:22:58;21.70;99.90
12053;DHT22;6087;48.982;12.064;2022-07-01T00:25:26;21.60;99.90
12053;DHT22;6087;48.982;12.064;2022-07-01T00:27:53;21.50;99.90
12053;DHT22;6087;48.982;12.064;2022-07-01T00:30:20;21.50;99.90
12053;DHT22;6087;48.982;12.064;2022-07-01T00:32:47;21.40;99.90
12053;DHT22;6087;48.982;12.064;2022-07-01T00:35:15;21.30;99.90
12053;DHT22;6087;48.982;12.064;2022-07-01T00:37:42;21.20;99.90
12053;DHT22;6087;48.982;12.064;2022-07-01T00:40:10;21.10;99.90
12053;DHT22;6087;48.982;12.064;2022-07-01T00:42:39;21.10;99.90
12053;DHT22;6087;48.982;12.064;2022-07-01T00:45:08;21.10;99.90
12053;DHT22;6087;48.982;12.064;2022-07-01T00:47:36;21.10;99.90
12053;DHT22;6087;48.982;12.064;2022-07-01T00:50:05;21.10;99.90
12053;DHT22;6087;48.982;12.064;2022-07-01T00:52:35;21.10;99.90
12053;DHT22;6087;48.982;12.064;2022-07-01T00:55:03;21.10;99.90
12053;DHT22;6087;48.982;12.064;2022-07-01T00:57:32;21.10;99.90
12053;DHT22;6087;48.982;12.064;2022-07-01T01:00:01;21.10;99.90
12053;DHT22;6087;48.982;12.064;2022-07-01T01:02:28;21.10;99.90
12053;DHT22;6087;48.982;12.064;2022-07-01T01:04:56;21.10;99.90
12053;DHT22;6087;48.982;12.064;2022-07-01T01:07:23;21.10;99.90
12053;DHT22;6087;48.982;12.064;2022-07-01T01:09:52;21.10;99.90
12053;DHT22;6087;48.982;12.064;2022-07-01T01:12:20;21.00;99.90
12053;DHT22;6087;48.982;12.064;2022-07-01T01:14:48;21.00;99.90
12053;DHT22;6087;48.982;12.064;2022-07-01T01:17:16;20.90;99.90
12053;DHT22;6087;48.982;12.064;2022-07-01T01:19:44;21.00;99.90
12053;DHT22;6087;48.982;12.064;2022-07-01T01:22:14;21.00;99.90
12053;DHT22;6087;48.982;12.064;2022-07-01T01:24:42;21.00;99.90
12053;DHT22;6087;48.982;12.064;2022-07-01T01:27:13;21.00;99.90
12053;DHT22;6087;48.982;12.064;2022-07-01T01:29:42;21.00;99.90
12053;DHT22;6087;48.982;12.064;2022-07-01T01:32:10;20.90;99.90
12053;DHT22;6087;48.982;12.064;2022-07-01T01:34:37;21.00;99.90
12053;DHT22;6087;48.982;12.064;2022-07-01T01:37:06;20.90;99.90
12053;DHT22;6087;48.982;12.064;2022-07-01T01:39:34;20.90;99.90
12053;DHT22;6087;48.982;12.064;2022-07-01T01:42:03;20.90;99.90
12053;DHT22;6087;48.982;12.064;2022-07-01T01:44:30;20.80;99.90
12053;DHT22;6087;48.982;12.064;2022-07-01T01:46:57;20.90;99.90
12053;DHT22;6087;48.982;12.064;2022-07-01T01:49:24;20.80;99.90
12053;DHT22;6087;48.982;12.064;2022-07-01T01:51:51;20.80;99.90
12053;DHT22;6087;48.982;12.064;2022-07-01T01:54:18;20.70;99.90
12053;DHT22;6087;48.982;12.064;2022-07-01T01:56:47;20.50;99.90
12053;DHT22;6087;48.982;12.064;2022-07-01T01:59:13;20.60;99.90
12053;DHT22;6087;48.982;12.064;2022-07-01T02:01:40;20.60;99.90
12053;DHT22;6087;48.982;12.064;2022-07-01T02:04:07;20.60;99.90
12053;DHT22;6087;48.982;12.064;2022-07-01T02:06:34;20.60;99.90
12053;DHT22;6087;48.982;12.064;2022-07-01T02:09:04;20.50;99.90
12053;DHT22;6087;48.982;12.064;2022-07-01T02:11:31;20.30;99.90
12053;DHT22;6087;48.982;12.064;2022-07-01T02:13:59;20.20;99.90
12053;DHT22;6087;48.982;12.064;2022-07-01T02:16:26;20.20;99.90
12053;DHT22;6087;48.982;12.064;2022-07-01T02:18:53;20.20;99.90
12053;DHT22;6087;48.982;12.064;2022-07-01T02:21:20;20.20;99.90
12053;DHT22;6087;48.982;12.064;2022-07-01T02:23:47;20.20;99.90
12053;DHT22;6087;48.982;12.064;2022-07-01T02:26:14;20.10;99.90
12053;DHT22;6087;48.982;12.064;2022-07-01T02:28:41;20.10;99.90
12053;DHT22;6087;48.982;12.064;2022-07-01T02:31:09;20.10;99.90
12053;DHT22;6087;48.982;12.064;2022-07-01T02:33:36;20.10;99.90
12053;DHT22;6087;48.982;12.064;2022-07-01T02:36:04;20.00;99.90
12053;DHT22;6087;48.982;12.064;2022-07-01T02:38:31;20.00;99.90
12053;DHT22;6087;48.982;12.064;2022-07-01T02:40:58;19.90;99.90
12053;DHT22;6087;48.982;12.064;2022-07-01T02:43:25;19.80;99.90
12053;DHT22;6087;48.982;12.064;2022-07-01T02:45:52;19.80;99.90
12053;DHT22;6087;48.982;12.064;2022-07-01T02:48:21;19.70;99.90
12053;DHT22;6087;48.982;12.064;2022-07-01T02:50:48;19.70;99.90
12053;DHT22;6087;48.982;12.064;2022-07-01T02:53:14;19.70;99.90
12053;DHT22;6087;48.982;12.064;2022-07-01T02:55:41;19.60;99.90
12053;DHT22;6087;48.982;12.064;2022-07-01T02:58:10;19.60;99.90
12053;DHT22;6087;48.982;12.064;2022-07-01T03:00:37;19.60;99.90
12053;DHT22;6087;48.982;12.064;2022-07-01T03:03:04;19.40;99.90
12053;DHT22;6087;48.982;12.064;2022-07-01T03:05:32;19.40;99.90
12053;DHT22;6087;48.982;12.064;2022-07-01T03:07:59;19.40;99.90
12053;DHT22;6087;48.982;12.064;2022-07-01T03:10:26;19.40;99.90
12053;DHT22;6087;48.982;12.064;2022-07-01T03:12:53;19.40;99.90
12053;DHT22;6087;48.982;12.064;2022-07-01T03:15:20;19.50;99.90
12053;DHT22;6087;48.982;12.064;2022-07-01T03:17:47;19.40;99.90
12053;DHT22;6087;48.982;12.064;2022-07-01T03:20:15;19.40;99.90
12053;DHT22;6087;48.982;12.064;2022-07-01T03:22:45;19.40;99.90
12053;DHT22;6087;48.982;12.064;2022-07-01T03:25:12;19.30;99.90
12053;DHT22;6087;48.982;12.064;2022-07-01T03:27:39;19.30;99.90
12053;DHT22;6087;48.982;12.064;2022-07-01T03:30:11;19.30;99.90
12053;DHT22;6087;48.982;12.064;2022-07-01T03:32:39;19.40;99.90
12053;DHT22;6087;48.982;12.064;2022-07-01T03:35:06;19.40;99.90
12053;DHT22;6087;48.982;12.064;2022-07-01T03:37:49;19.40;99.90
12053;DHT22;6087;48.982;12.064;2022-07-01T03:40:16;19.40;99.90
12053;DHT22;6087;48.982;12.064;2022-07-01T03:42:43;19.40;99.90
12053;DHT22;6087;48.982;12.064;2022-07-01T03:45:10;19.30;99.90
12053;DHT22;6087;48.982;12.064;2022-07-01T03:47:37;19.40;99.90
12053;DHT22;6087;48.982;12.064;2022-07-01T03:50:05;19.30;99.90
12053;DHT22;6087;48.982;12.064;2022-07-01T03:52:32;19.20;99.90
12053;DHT22;6087;48.982;12.064;2022-07-01T03:55:01;19.20;99.90
12053;DHT22;6087;48.982;12.064;2022-07-01T03:57:27;19.20;99.90
12053;DHT22;6087;48.982;12.064;2022-07-01T03:59:54;19.10;99.90
12053;DHT22;6087;48.982;12.064;2022-07-01T04:02:21;19.10;99.90
12053;DHT22;6087;48.982;12.064;2022-07-01T04:04:48;19.00;99.90
12053;DHT22;6087;48.982;12.064;2022-07-01T04:07:15;19.00;99.90
12053;DHT22;6087;48.982;12.064;2022-07-01T04:09:42;18.90;99.90
12053;DHT22;6087;48.982;12.064;2022-07-01T04:12:11;18.90;99.90
12053;DHT22;6087;48.982;12.064;2022-07-01T04:14:38;18.80;99.90
12053;DHT22;6087;48.982;12.064;2022-07-01T04:17:05;18.80;99.90
12053;DHT22;6087;48.982;12.064;2022-07-01T04:19:33;18.80;99.90
12053;DHT22;6087;48.982;12.064;2022-07-01T04:22:04;18.90;99.90
12053;DHT22;6087;48.982;12.064;2022-07-01T04:24:48;18.80;99.90
12053;DHT22;6087;48.982;12.064;2022-07-01T04:27:16;18.80;99.90
12053;DHT22;6087;48.982;12.064;2022-07-01T04:29:43;18.80;99.90
12053;DHT22;6087;48.982;12.064;2022-07-01T04:32:10;18.80;99.90
12053;DHT22;6087;48.982;12.064;2022-07-01T04:34:37;18.80;99.90
12053;DHT22;6087;48.982;12.064;2022-07-01T04:37:04;18.80;99.90
12053;DHT22;6087;48.982;12.064;2022-07-01T04:39:31;18.70;99.90
12053;DHT22;6087;48.982;12.064;2022-07-01T04:41:58;18.70;99.90
12053;DHT22;6087;48.982;12.064;2022-07-01T04:44:29;18.80;99.90
12053;DHT22;6087;48.982;12.064;2022-07-01T04:46:57;18.80;99.90
12053;DHT22;6087;48.982;12.064;2022-07-01T04:49:24;18.80;99.90
12053;DHT22;6087;48.982;12.064;2022-07-01T04:51:51;18.90;99.90
12053;DHT22;6087;48.982;12.064;2022-07-01T04:54:18;19.00;99.90
12053;DHT22;6087;48.982;12.064;2022-07-01T04:56:46;18.90;99.90
12053;DHT22;6087;48.982;12.064;2022-07-01T04:59:13;19.00;99.90
12053;DHT22;6087;48.982;12.064;2022-07-01T05:01:43;19.10;99.90
12053;DHT22;6087;48.982;12.064;2022-07-01T05:04:10;19.10;99.90
12053;DHT22;6087;48.982;12.064;2022-07-01T05:06:39;19.10;99.90
12053;DHT22;6087;48.982;12.064;2022-07-01T05:09:06;19.20;99.90
12053;DHT22;6087;48.982;12.064;2022-07-01T05:11:33;19.10;99.90
12053;DHT22;6087;48.982;12.064;2022-07-01T05:14:00;19.10;99.90
12053;DHT22;6087;48.982;12.064;2022-07-01T05:16:27;19.20;99.90
12053;DHT22;6087;48.982;12.064;2022-07-01T05:18:55;19.20;99.90
12053;DHT22;6087;48.982;12.064;2022-07-01T05:21:40;19.20;99.90
12053;DHT22;6087;48.982;12.064;2022-07-01T05:24:28;19.20;99.90
12053;DHT22;6087;48.982;12.064;2022-07-01T05:26:56;19.20;99.90
12053;DHT22;6087;48.982;12.064;2022-07-01T05:29:23;19.30;99.90
12053;DHT22;6087;48.982;12.064;2022-07-01T05:31:50;19.20;99.90
12053;DHT22;6087;48.982;12.064;2022-07-01T05:34:19;19.30;99.90
12053;DHT22;6087;48.982;12.064;2022-07-01T05:36:46;19.40;99.90
12053;DHT22;6087;48.982;12.064;2022-07-01T05:39:13;19.50;99.90
12053;DHT22;6087;48.982;12.064;2022-07-01T05:41:40;19.50;99.90
12053;DHT22;6087;48.982;12.064;2022-07-01T05:44:07;19.40;99.90
12053;DHT22;6087;48.982;12.064;2022-07-01T05:46:34;19.30;99.90
12053;DHT22;6087;48.982;12.064;2022-07-01T05:49:01;19.50;99.90
12053;DHT22;6087;48.982;12.064;2022-07-01T05:51:30;19.40;99.90
12053;DHT22;6087;48.982;12.064;2022-07-01T05:53:57;19.50;99.90
12053;DHT22;6087;48.982;12.064;2022-07-01T05:56:24;19.50;99.90
12053;DHT22;6087;48.982;12.064;2022-07-01T05:58:52;19.50;99.90
12053;DHT22;6087;48.982;12.064;2022-07-01T06:01:19;19.60;99.90
12053;DHT22;6087;48.982;12.064;2022-07-01T06:03:46;19.40;99.90
12053;DHT22;6087;48.982;12.064;2022-07-01T06:06:13;19.50;99.90
12053;DHT22;6087;48.982;12.064;2022-07-01T06:08:41;19.60;99.90
12053;DHT22;6087;48.982;12.064;2022-07-01T06:11:08;19.40;99.90
12053;DHT22;6087;48.982;12.064;2022-07-01T06:13:35;19.50;99.90
12053;DHT22;6087;48.982;12.064;2022-07-01T06:16:02;19.50;99.90
12053;DHT22;6087;48.982;12.064;2022-07-01T06:18:29;19.60;99.90
12053;DHT22;6087;48.982;12.064;2022-07-01T06:20:56;19.50;99.90
12053;DHT22;6087;48.982;12.064;2022-07-01T06:23:23;19.50;99.90
12053;DHT22;6087;48.982;12.064;2022-07-01T06:25:52;19.30;99.90
12053;DHT22;6087;48.982;12.064;2022-07-01T06:28:18;19.30;99.90
12053;DHT22;6087;48.982;12.064;2022-07-01T06:30:45;19.30;99.90
12053;DHT22;6087;48.982;12.064;2022-07-01T06:33:13;19.30;99.90
12053;DHT22;6087;48.982;12.064;2022-07-01T06:35:40;19.40;99.90
12053;DHT22;6087;48.982;12.064;2022-07-01T06:38:07;19.40;99.90
12053;DHT22;6087;48.982;12.064;2022-07-01T06:40:34;19.60;99.90
12053;DHT22;6087;48.982;12.064;2022-07-01T06:43:03;19.60;99.90
12053;DHT22;6087;48.982;12.064;2022-07-01T06:45:30;19.60;99.90
12053;DHT22;6087;48.982;12.064;2022-07-01T06:47:58;19.50;99.90
12053;DHT22;6087;48.982;12.064;2022-07-01T06:50:25;19.50;99.90
12053;DHT22;6087;48.982;12.064;2022-07-01T06:52:51;19.60;99.90
12053;DHT22;6087;48.982;12.064;2022-07-01T06:55:18;19.50;99.90
12053;DHT22;6087;48.982;12.064;2022-07-01T06:57:45;19.40;99.90
12053;DHT22;6087;48.982;12.064;2022-07-01T07:00:14;19.30;99.90
12053;DHT22;6087;48.982;12.064;2022-07-01T07:02:41;19.40;99.90
12053;DHT22;6087;48.982;12.064;2022-07-01T07:05:09;19.50;99.90
12053;DHT22;6087;48.982;12.064;2022-07-01T07:07:36;19.40;99.90
12053;DHT22;6087;48.982;12.064;2022-07-01T07:10:03;19.20;99.90
12053;DHT22;6087;48.982;12.064;2022-07-01T07:12:30;19.20;99.90
12053;DHT22;6087;48.982;12.064;2022-07-01T07:14:57;19.10;99.90
12053;DHT22;6087;48.982;12.064;2022-07-01T07:17:26;19.10;99.90
12053;DHT22;6087;48.982;12.064;2022-07-01T07:19:53;19.00;99.90
12053;DHT22;6087;48.982;12.064;2022-07-01T07:22:21;19.00;99.90
12053;DHT22;6087;48.982;12.064;2022-07-01T07:24:48;18.90;99.90
12053;DHT22;6087;48.982;12.064;2022-07-01T07:27:15;18.70;99.90
12053;DHT22;6087;48.982;12.064;2022-07-01T07:29:42;18.70;99.90
12053;DHT22;6087;48.982;12.064;2022-07-01T07:32:08;18.70;99.90
12053;DHT22;6087;48.982;12.064;2022-07-01T07:34:37;18.70;99.90
12053;DHT22;6087;48.982;12.064;2022-07-01T07:37:04;18.50;99.90
12053;DHT22;6087;48.982;12.064;2022-07-01T07:39:31;18.40;99.90
12053;DHT22;6087;48.982;12.064;2022-07-01T07:41:58;18.30;99.90
12053;DHT22;6087;48.982;12.064;2022-07-01T07:44:25;18.40;99.90
12053;DHT22;6087;48.982;12.064;2022-07-01T07:46:52;18.50;99.90
12053;DHT22;6087;48.982;12.064;2022-07-01T07:49:19;18.50;99.90
12053;DHT22;6087;48.982;12.064;2022-07-01T07:51:47;18.40;99.90
12053;DHT22;6087;48.982;12.064;2022-07-01T07:54:14;18.40;99.90
12053;DHT22;6087;48.982;12.064;2022-07-01T07:56:41;18.40;99.90
12053;DHT22;6087;48.982;12.064;2022-07-01T07:59:08;18.30;99.90
12053;DHT22;6087;48.982;12.064;2022-07-01T08:01:35;18.40;99.90
12053;DHT22;6087;48.982;12.064;2022-07-01T08:04:02;18.50;99.90
12053;DHT22;6087;48.982;12.064;2022-07-01T08:06:29;18.40;99.90
12053;DHT22;6087;48.982;12.064;2022-07-01T08:08:57;18.20;99.90
12053;DHT22;6087;48.982;12.064;2022-07-01T08:11:24;18.40;99.90
12053;DHT22;6087;48.982;12.064;2022-07-01T08:13:51;18.50;99.90
12053;DHT22;6087;48.982;12.064;2022-07-01T08:16:18;18.50;99.90
12053;DHT22;6087;48.982;12.064;2022-07-01T08:18:45;18.60;99.90
12053;DHT22;6087;48.982;12.064;2022-07-01T08:21:12;18.70;99.90
12053;DHT22;6087;48.982;12.064;2022-07-01T08:23:39;18.70;99.90
12053;DHT22;6087;48.982;12.064;2022-07-01T08:26:07;18.80;99.90
12053;DHT22;6087;48.982;12.064;2022-07-01T08:28:37;18.80;99.90
12053;DHT22;6087;48.982;12.064;2022-07-01T08:31:03;18.80;99.90
12053;DHT22;6087;48.982;12.064;2022-07-01T08:33:30;18.90;99.90
12053;DHT22;6087;48.982;12.064;2022-07-01T08:35:57;19.00;99.90
12053;DHT22;6087;48.982;12.064;2022-07-01T08:38:24;19.00;99.90
12053;DHT22;6087;48.982;12.064;2022-07-01T08:40:51;19.10;99.90
12053;DHT22;6087;48.982;12.064;2022-07-01T08:43:19;19.00;99.90
12053;DHT22;6087;48.982;12.064;2022-07-01T08:45:47;18.90;99.90
12053;DHT22;6087;48.982;12.064;2022-07-01T08:48:17;18.90;99.90
12053;DHT22;6087;48.982;12.064;2022-07-01T08:50:44;18.90;99.90
12053;DHT22;6087;48.982;12.064;2022-07-01T08:53:12;19.20;99.90
12053;DHT22;6087;48.982;12.064;2022-07-01T08:55:40;19.20;99.90
12053;DHT22;6087;48.982;12.064;2022-07-01T08:58:23;19.30;99.90
12053;DHT22;6087;48.982;12.064;2022-07-01T09:00:50;19.40;99.90
12053;DHT22;6087;48.982;12.064;2022-07-01T09:03:20;19.50;99.90
12053;DHT22;6087;48.982;12.064;2022-07-01T09:05:50;19.60;99.90
12053;DHT22;6087;48.982;12.064;2022-07-01T09:08:17;19.70;99.90
12053;DHT22;6087;48.982;12.064;2022-07-01T09:10:45;19.80;99.90
12053;DHT22;6087;48.982;12.064;2022-07-01T09:13:13;19.80;99.90
12053;DHT22;6087;48.982;12.064;2022-07-01T09:15:42;19.90;99.90
12053;DHT22;6087;48.982;12.064;2022-07-01T09:18:10;19.90;99.90
12053;DHT22;6087;48.982;12.064;2022-07-01T09:20:40;19.80;99.90
12053;DHT22;6087;48.982;12.064;2022-07-01T09:23:10;19.60;99.90
12053;DHT22;6087;48.982;12.064;2022-07-01T09:25:39;19.40;99.90
12053;DHT22;6087;48.982;12.064;2022-07-01T09:28:10;19.30;99.90
12053;DHT22;6087;48.982;12.064;2022-07-01T09:30:39;19.40;99.90
12053;DHT22;6087;48.982;12.064;2022-07-01T09:33:15;19.40;99.90
12053;DHT22;6087;48.982;12.064;2022-07-01T09:35:44;19.40;99.90
12053;DHT22;6087;48.982;12.064;2022-07-01T09:38:15;19.00;99.90
12053;DHT22;6087;48.982;12.064;2022-07-01T09:40:55;18.90;99.90
12053;DHT22;6087;48.982;12.064;2022-07-01T09:43:24;18.80;99.90
12053;DHT22;6087;48.982;12.064;2022-07-01T09:45:56;18.80;99.90
12053;DHT22;6087;48.982;12.064;2022-07-01T09:48:27;18.60;99.90
12053;DHT22;6087;48.982;12.064;2022-07-01T09:50:57;18.50;99.90
12053;DHT22;6087;48.982;12.064;2022-07-01T09:53:24;18.50;99.90
12053;DHT22;6087;48.982;12.064;2022-07-01T09:55:51;18.50;99.90
12053;DHT22;6087;48.982;12.064;2022-07-01T09:58:19;18.50;99.90
12053;DHT22;6087;48.982;12.064;2022-07-01T10:00:46;18.50;99.90
12053;DHT22;6087;48.982;12.064;2022-07-01T10:03:13;18.40;99.90
12053;DHT22;6087;48.982;12.064;2022-07-01T10:05:47;18.40;99.90
12053;DHT22;6087;48.982;12.064;2022-07-01T10:08:27;18.10;99.90
12053;DHT22;6087;48.982;12.064;2022-07-01T10:11:05;18.10;99.90
12053;DHT22;6087;48.982;12.064;2022-07-01T10:13:40;18.40;99.90
12053;DHT22;6087;48.982;12.064;2022-07-01T10:16:08;18.50;99.90
12053;DHT22;6087;48.982;12.064;2022-07-01T10:18:36;18.50;99.90
12053;DHT22;6087;48.982;12.064;2022-07-01T10:21:04;18.60;99.90
12053;DHT22;6087;48.982;12.064;2022-07-01T10:23:38;18.70;99.90
12053;DHT22;6087;48.982;12.064;2022-07-01T10:26:08;18.70;99.90
12053;DHT22;6087;48.982;12.064;2022-07-01T10:28:41;18.40;99.90
12053;DHT22;6087;48.982;12.064;2022-07-01T10:31:10;18.20;99.90
12053;DHT22;6087;48.982;12.064;2022-07-01T10:33:46;18.10;99.90
12053;DHT22;6087;48.982;12.064;2022-07-01T10:36:18;18.20;99.90
12053;DHT22;6087;48.982;12.064;2022-07-01T10:39:13;18.20;99.90
12053;DHT22;6087;48.982;12.064;2022-07-01T10:42:03;18.20;99.90
12053;DHT22;6087;48.982;12.064;2022-07-01T10:44:31;18.20;99.90
12053;DHT22;6087;48.982;12.064;2022-07-01T10:47:04;18.20;99.90
12053;DHT22;6087;48.982;12.064;2022-07-01T10:50:06;18.30;99.90
12053;DHT22;6087;48.982;12.064;2022-07-01T10:52:35;18.40;99.90
12053;DHT22;6087;48.982;12.064;2022-07-01T10:55:04;18.50;99.90
12053;DHT22;6087;48.982;12.064;2022-07-01T10:57:38;18.40;99.90
12053;DHT22;6087;48.982;12.064;2022-07-01T11:00:25;18.60;99.90
12053;DHT22;6087;48.982;12.064;2022-07-01T11:02:55;18.60;99.90
12053;DHT22;6087;48.982;12.064;2022-07-01T11:05:31;18.60;99.90
12053;DHT22;6087;48.982;12.064;2022-07-01T11:07:59;18.50;99.90
12053;DHT22;6087;48.982;12.064;2022-07-01T11:10:26;18.50;99.90
12053;DHT22;6087;48.982;12.064;2022-07-01T11:12:53;18.60;99.90
12053;DHT22;6087;48.982;12.064;2022-07-01T11:15:20;18.60;99.90
12053;DHT22;6087;48.982;12.064;2022-07-01T11:17:50;18.50;99.90
12053;DHT22;6087;48.982;12.064;2022-07-01T11:20:17;18.50;99.90
12053;DHT22;6087;48.982;12.064;2022-07-01T11:22:44;18.50;99.90
12053;DHT22;6087;48.982;12.064;2022-07-01T11:25:13;18.50;99.90
12053;DHT22;6087;48.982;12.064;2022-07-01T11:27:40;18.60;99.90
12053;DHT22;6087;48.982;12.064;2022-07-01T11:30:12;18.60;99.90
12053;DHT22;6087;48.982;12.064;2022-07-01T11:32:41;18.60;99.90
12053;DHT22;6087;48.982;12.064;2022-07-01T11:35:14;18.60;99.90
12053;DHT22;6087;48.982;12.064;2022-07-01T11:38:09;18.50;99.90
12053;DHT22;6087;48.982;12.064;2022-07-01T11:40:56;18.50;99.90
12053;DHT22;6087;48.982;12.064;2022-07-01T11:43:27;18.30;99.90
12053;DHT22;6087;48.982;12.064;2022-07-01T11:45:56;18.30;99.90
12053;DHT22;6087;48.982;12.064;2022-07-01T11:48:47;18.30;99.90
12053;DHT22;6087;48.982;12.064;2022-07-01T11:51:17;18.30;99.90
12053;DHT22;6087;48.982;12.064;2022-07-01T11:53:46;18.30;99.90
12053;DHT22;6087;48.982;12.064;2022-07-01T11:56:16;18.30;99.90
12053;DHT22;6087;48.982;12.064;2022-07-01T11:58:48;18.30;99.90
12053;DHT22;6087;48.982;12.064;2022-07-01T12:01:27;18.10;99.90
12053;DHT22;6087;48.982;12.064;2022-07-01T12:03:55;18.00;99.90
12053;DHT22;6087;48.982;12.064;2022-07-01T12:06:24;18.00;99.90
12053;DHT22;6087;48.982;12.064;2022-07-01T12:08:52;18.00;99.90
12053;DHT22;6087;48.982;12.064;2022-07-01T12:11:27;18.00;99.90
12053;DHT22;6087;48.982;12.064;2022-07-01T12:13:55;18.00;99.90
12053;DHT22;6087;48.982;12.064;2022-07-01T12:16:24;18.00;99.90
12053;DHT22;6087;48.982;12.064;2022-07-01T12:18:53;17.90;99.90
12053;DHT22;6087;48.982;12.064;2022-07-01T12:21:21;17.70;99.90
12053;DHT22;6087;48.982;12.064;2022-07-01T12:24:06;17.60;99.90
12053;DHT22;6087;48.982;12.064;2022-07-01T12:26:35;17.50;99.90
12053;DHT22;6087;48.982;12.064;2022-07-01T12:29:02;17.50;99.90
12053;DHT22;6087;48.982;12.064;2022-07-01T12:31:28;17.50;99.90
12053;DHT22;6087;48.982;12.064;2022-07-01T12:33:55;17.40;99.90
12053;DHT22;6087;48.982;12.064;2022-07-01T12:36:22;17.50;99.90
12053;DHT22;6087;48.982;12.064;2022-07-01T12:39:00;17.60;99.90
12053;DHT22;6087;48.982;12.064;2022-07-01T12:41:28;17.60;99.90
12053;DHT22;6087;48.982;12.064;2022-07-01T12:43:57;17.60;99.90
12053;DHT22;6087;48.982;12.064;2022-07-01T12:46:28;17.50;99.90
12053;DHT22;6087;48.982;12.064;2022-07-01T12:48:55;17.50;99.90
12053;DHT22;6087;48.982;12.064;2022-07-01T12:51:29;17.60;99.90
12053;DHT22;6087;48.982;12.064;2022-07-01T12:53:56;17.40;99.90
12053;DHT22;6087;48.982;12.064;2022-07-01T12:56:24;17.40;99.90
12053;DHT22;6087;48.982;12.064;2022-07-01T12:58:52;17.40;99.90
12053;DHT22;6087;48.982;12.064;2022-07-01T13:01:20;17.60;99.90
12053;DHT22;6087;48.982;12.064;2022-07-01T13:03:48;17.70;99.90
12053;DHT22;6087;48.982;12.064;2022-07-01T13:06:15;17.80;99.90
12053;DHT22;6087;48.982;12.064;2022-07-01T13:08:42;17.80;99.90
12053;DHT22;6087;48.982;12.064;2022-07-01T13:11:09;17.80;99.90
12053;DHT22;6087;48.982;12.064;2022-07-01T13:13:36;17.80;99.90
12053;DHT22;6087;48.982;12.064;2022-07-01T13:16:03;17.60;99.90
12053;DHT22;6087;48.982;12.064;2022-07-01T13:18:32;17.40;99.90
12053;DHT22;6087;48.982;12.064;2022-07-01T13:20:59;17.30;99.90
12053;DHT22;6087;48.982;12.064;2022-07-01T13:23:25;17.10;99.90
12053;DHT22;6087;48.982;12.064;2022-07-01T13:25:52;16.80;99.90
12053;DHT22;6087;48.982;12.064;2022-07-01T13:28:19;16.80;99.90
12053;DHT22;6087;48.982;12.064;2022-07-01T13:30:46;16.80;99.90
12053;DHT22;6087;48.982;12.064;2022-07-01T13:33:13;16.80;99.90
12053;DHT22;6087;48.982;12.064;2022-07-01T13:35:41;16.70;99.90
12053;DHT22;6087;48.982;12.064;2022-07-01T13:38:08;16.70;99.90
12053;DHT22;6087;48.982;12.064;2022-07-01T13:40:35;16.60;99.90
12053;DHT22;6087;48.982;12.064;2022-07-01T13:43:02;16.70;99.90
12053;DHT22;6087;48.982;12.064;2022-07-01T13:45:29;16.80;99.90
12053;DHT22;6087;48.982;12.064;2022-07-01T13:47:56;16.70;99.90
12053;DHT22;6087;48.982;12.064;2022-07-01T13:50:23;16.60;99.90
12053;DHT22;6087;48.982;12.064;2022-07-01T13:52:51;16.50;99.90
12053;DHT22;6087;48.982;12.064;2022-07-01T13:55:18;16.40;99.90
12053;DHT22;6087;48.982;12.064;2022-07-01T13:57:45;16.40;99.90
12053;DHT22;6087;48.982;12.064;2022-07-01T14:00:13;16.40;99.90
12053;DHT22;6087;48.982;12.064;2022-07-01T14:02:39;16.30;99.90
12053;DHT22;6087;48.982;12.064;2022-07-01T14:05:07;16.30;99.90
12053;DHT22;6087;48.982;12.064;2022-07-01T14:07:34;16.20;99.90
12053;DHT22;6087;48.982;12.064;2022-07-01T14:10:04;16.20;99.90
12053;DHT22;6087;48.982;12.064;2022-07-01T14:12:31;16.20;99.90
12053;DHT22;6087;48.982;12.064;2022-07-01T14:14:59;16.20;99.90
12053;DHT22;6087;48.982;12.064;2022-07-01T14:17:26;16.30;99.90
12053;DHT22;6087;48.982;12.064;2022-07-01T14:19:54;16.40;99.90
12053;DHT22;6087;48.982;12.064;2022-07-01T14:22:23;16.50;99.90
12053;DHT22;6087;48.982;12.064;2022-07-01T14:24:50;16.80;99.90
12053;DHT22;6087;48.982;12.064;2022-07-01T14:27:18;16.90;99.90
12053;DHT22;6087;48.982;12.064;2022-07-01T14:29:45;17.00;99.90
12053;DHT22;6087;48.982;12.064;2022-07-01T14:32:12;17.10;99.90
12053;DHT22;6087;48.982;12.064;2022-07-01T14:34:39;17.10;99.90
12053;DHT22;6087;48.982;12.064;2022-07-01T14:37:06;17.10;99.90
12053;DHT22;6087;48.982;12.064;2022-07-01T14:39:33;17.10;99.90
12053;DHT22;6087;48.982;12.064;2022-07-01T14:42:00;17.10;99.90
12053;DHT22;6087;48.982;12.064;2022-07-01T14:44:29;17.00;99.90
12053;DHT22;6087;48.982;12.064;2022-07-01T14:46:56;16.80;99.90
12053;DHT22;6087;48.982;12.064;2022-07-01T14:49:23;16.60;99.90
12053;DHT22;6087;48.982;12.064;2022-07-01T14:51:50;16.70;99.90
12053;DHT22;6087;48.982;12.064;2022-07-01T14:54:17;16.60;99.90
12053;DHT22;6087;48.982;12.064;2022-07-01T14:56:44;16.40;99.90
12053;DHT22;6087;48.982;12.064;2022-07-01T14:59:11;16.40;99.90
12053;DHT22;6087;48.982;12.064;2022-07-01T15:01:40;16.40;99.90
12053;DHT22;6087;48.982;12.064;2022-07-01T15:04:07;16.40;99.90
12053;DHT22;6087;48.982;12.064;2022-07-01T15:06:34;16.40;99.90
12053;DHT22;6087;48.982;12.064;2022-07-01T15:09:01;16.40;99.90
12053;DHT22;6087;48.982;12.064;2022-07-01T15:11:28;16.40;99.90
12053;DHT22;6087;48.982;12.064;2022-07-01T15:13:55;16.40;99.90
12053;DHT22;6087;48.982;12.064;2022-07-01T15:16:22;16.40;99.90
12053;DHT22;6087;48.982;12.064;2022-07-01T15:18:52;16.30;99.90
12053;DHT22;6087;48.982;12.064;2022-07-01T15:21:19;16.10;99.90
12053;DHT22;6087;48.982;12.064;2022-07-01T15:23:46;15.90;99.90
12053;DHT22;6087;48.982;12.064;2022-07-01T15:26:13;15.80;99.90
12053;DHT22;6087;48.982;12.064;2022-07-01T15:28:40;15.90;99.90
12053;DHT22;6087;48.982;12.064;2022-07-01T15:31:07;15.90;99.90
12053;DHT22;6087;48.982;12.064;2022-07-01T15:33:34;15.90;99.90
12053;DHT22;6087;48.982;12.064;2022-07-01T15:36:03;15.80;99.90
12053;DHT22;6087;48.982;12.064;2022-07-01T15:38:30;15.90;99.90